createdAt,value
2018-01-14T00:00:05.384Z,21.97
2018-01-14T00:02:32.895Z,22.53
2018-01-14T00:05:00.436Z,22.53
2018-01-14T00:07:27.913Z,22.37
2018-01-14T00:09:55.546Z,21.20
2018-01-14T00:12:23.059Z,22.53
2018-01-14T00:14:50.550Z,22.93
2018-01-14T00:17:18.026Z,23.07
2018-01-14T00:19:45.573Z,23.00
2018-01-14T00:22:13.074Z,22.93
2018-01-14T00:24:40.561Z,22.27
2018-01-14T00:27:08.123Z,25.87
2018-01-14T00:29:35.569Z,23.87
2018-01-14T00:32:03.114Z,24.30
2018-01-14T00:34:30.608Z,29.53
2018-01-14T00:36:58.472Z,27.57
2018-01-14T00:39:25.918Z,25.87
2018-01-14T00:41:53.437Z,29.17
2018-01-14T00:44:20.973Z,28.27
2018-01-14T00:46:48.481Z,29.80
2018-01-14T00:49:15.987Z,28.13
2018-01-14T00:51:43.444Z,29.80
2018-01-14T00:54:10.912Z,29.70
2018-01-14T00:56:38.487Z,31.07
2018-01-14T00:59:05.978Z,30.33
2018-01-14T01:01:33.503Z,29.97
2018-01-14T01:04:00.965Z,27.73
2018-01-14T01:06:28.543Z,26.77
2018-01-14T01:08:56.022Z,32.77
2018-01-14T01:11:23.490Z,31.83
2018-01-14T01:13:51.006Z,31.73
2018-01-14T01:16:18.451Z,30.77
2018-01-14T01:18:46.015Z,33.03
2018-01-14T01:21:13.597Z,30.40
2018-01-14T01:23:41.080Z,34.37
2018-01-14T01:26:08.561Z,30.77
2018-01-14T01:28:36.058Z,32.43
2018-01-14T01:31:03.559Z,30.30
2018-01-14T01:33:31.046Z,31.70
2018-01-14T01:35:59.625Z,33.43
2018-01-14T01:38:27.083Z,32.97
2018-01-14T01:40:54.629Z,34.13
2018-01-14T01:43:22.476Z,36.77
2018-01-14T01:45:49.980Z,34.80
2018-01-14T01:48:17.512Z,32.97
2018-01-14T01:50:44.973Z,34.97
2018-01-14T01:53:12.604Z,31.73
2018-01-14T01:55:40.189Z,31.97
2018-01-14T01:58:07.673Z,34.60
2018-01-14T02:00:35.328Z,32.50
2018-01-14T02:03:02.850Z,37.07
2018-01-14T02:05:30.298Z,34.33
2018-01-14T02:07:57.864Z,33.77
2018-01-14T02:10:25.483Z,34.77
2018-01-14T02:12:52.998Z,34.50
2018-01-14T02:15:20.469Z,36.33
2018-01-14T02:17:47.969Z,38.17
2018-01-14T02:20:15.439Z,38.33
2018-01-14T02:22:42.944Z,33.73
2018-01-14T02:25:10.502Z,35.13
2018-01-14T02:27:38.013Z,36.47
2018-01-14T02:30:05.575Z,37.73
2018-01-14T02:32:33.062Z,34.83
2018-01-14T02:35:00.579Z,33.53
2018-01-14T02:37:28.075Z,36.80
2018-01-14T02:39:55.590Z,33.90
2018-01-14T02:42:23.475Z,32.93
2018-01-14T02:44:50.938Z,32.90
2018-01-14T02:47:18.437Z,33.87
2018-01-14T02:49:45.929Z,35.23
2018-01-14T02:52:13.408Z,35.87
2018-01-14T02:54:40.946Z,37.03
2018-01-14T02:57:08.448Z,34.67
2018-01-14T02:59:36.184Z,42.57
2018-01-14T03:02:03.724Z,37.33
2018-01-14T03:04:31.205Z,39.37
2018-01-14T03:06:58.837Z,36.87
2018-01-14T03:09:26.306Z,37.20
2018-01-14T03:11:53.808Z,36.63
2018-01-14T03:14:21.259Z,36.90
2018-01-14T03:16:48.748Z,36.00
2018-01-14T03:19:16.227Z,40.13
2018-01-14T03:21:43.705Z,40.67
2018-01-14T03:24:12.143Z,34.60
2018-01-14T03:26:40.478Z,37.57
2018-01-14T03:29:08.027Z,38.77
2018-01-14T03:31:36.478Z,35.83
2018-01-14T03:34:04.069Z,38.07
2018-01-14T03:36:31.607Z,36.47
2018-01-14T03:38:59.107Z,39.47
2018-01-14T03:41:26.584Z,39.77
2018-01-14T03:43:54.147Z,37.30
2018-01-14T03:46:21.666Z,39.97
2018-01-14T03:48:49.207Z,39.07
2018-01-14T03:51:16.674Z,40.10
2018-01-14T03:53:44.149Z,42.03
2018-01-14T03:56:11.637Z,37.80
2018-01-14T03:58:39.114Z,39.50
2018-01-14T04:01:06.978Z,39.50
2018-01-14T04:03:35.666Z,38.70
2018-01-14T04:06:04.761Z,39.23
2018-01-14T04:08:32.238Z,38.30
2018-01-14T04:10:59.779Z,38.33
2018-01-14T04:13:27.254Z,40.77
2018-01-14T04:15:55.030Z,38.20
2018-01-14T04:18:22.498Z,38.47
2018-01-14T04:20:53.232Z,39.37
2018-01-14T04:23:20.782Z,38.43
2018-01-14T04:25:48.347Z,42.73
2018-01-14T04:28:15.889Z,37.60
2018-01-14T04:30:43.457Z,41.33
2018-01-14T04:33:11.009Z,40.47
2018-01-14T04:35:38.570Z,41.57
2018-01-14T04:38:06.867Z,39.10
2018-01-14T04:40:34.405Z,40.57
2018-01-14T04:43:07.168Z,40.00
2018-01-14T04:45:34.719Z,36.63
2018-01-14T04:48:02.925Z,37.13
2018-01-14T04:50:31.021Z,38.37
2018-01-14T04:52:59.399Z,43.03
2018-01-14T04:55:27.889Z,39.93
2018-01-14T04:57:55.510Z,41.50
2018-01-14T05:00:23.048Z,38.87
2018-01-14T05:02:50.564Z,37.83
2018-01-14T05:05:18.088Z,42.50
2018-01-14T05:07:45.553Z,38.27
2018-01-14T05:10:13.077Z,36.00
2018-01-14T05:12:40.621Z,35.00
2018-01-14T05:15:08.105Z,40.67
2018-01-14T05:17:35.606Z,36.60
2018-01-14T05:20:03.212Z,40.30
2018-01-14T05:22:30.687Z,38.10
2018-01-14T05:24:58.242Z,43.37
2018-01-14T05:27:25.804Z,39.90
2018-01-14T05:29:53.446Z,37.60
2018-01-14T05:32:20.936Z,36.47
2018-01-14T05:34:48.506Z,37.67
2018-01-14T05:37:16.009Z,34.13
2018-01-14T05:39:43.536Z,34.80
2018-01-14T05:42:11.011Z,37.47
2018-01-14T05:44:38.515Z,32.27
2018-01-14T05:47:06.010Z,36.47
2018-01-14T05:49:33.525Z,36.23
2018-01-14T05:52:00.999Z,35.63
2018-01-14T05:54:28.526Z,38.43
2018-01-14T05:56:56.094Z,34.37
2018-01-14T05:59:23.621Z,37.87
2018-01-14T06:01:51.085Z,36.37
2018-01-14T06:04:18.746Z,39.90
2018-01-14T06:06:46.265Z,35.80
2018-01-14T06:09:13.924Z,38.10
2018-01-14T06:11:41.427Z,33.10
2018-01-14T06:14:09.017Z,34.17
2018-01-14T06:16:36.620Z,35.50
2018-01-14T06:19:04.114Z,36.10
2018-01-14T06:21:31.607Z,34.10
2018-01-14T06:23:59.174Z,33.70
2018-01-14T06:26:26.686Z,34.13
2018-01-14T06:28:54.202Z,32.97
2018-01-14T06:31:21.792Z,34.40
2018-01-14T06:33:49.229Z,35.87
2018-01-14T06:36:16.764Z,34.77
2018-01-14T06:38:44.248Z,33.90
2018-01-14T06:41:11.801Z,35.57
2018-01-14T06:43:39.276Z,36.67
2018-01-14T06:46:06.838Z,35.83
2018-01-14T06:48:34.346Z,34.83
2018-01-14T06:51:02.138Z,37.63
2018-01-14T06:53:30.573Z,35.53
2018-01-14T06:55:58.126Z,37.37
2018-01-14T06:58:25.655Z,34.63
2018-01-14T07:00:53.150Z,32.70
2018-01-14T07:03:20.625Z,35.30
2018-01-14T07:05:48.094Z,34.37
2018-01-14T07:08:15.618Z,30.93
2018-01-14T07:10:43.094Z,33.07
2018-01-14T07:13:10.645Z,35.13
2018-01-14T07:15:38.320Z,35.60
2018-01-14T07:18:05.967Z,33.00
2018-01-14T07:20:33.517Z,33.03
2018-01-14T07:23:00.995Z,31.10
2018-01-14T07:25:28.595Z,32.60
2018-01-14T07:27:56.112Z,33.90
2018-01-14T07:30:23.587Z,36.17
2018-01-14T07:32:51.141Z,33.77
2018-01-14T07:35:18.646Z,38.63
2018-01-14T07:37:46.208Z,33.77
2018-01-14T07:40:13.954Z,35.77
2018-01-14T07:42:41.977Z,34.43
2018-01-14T07:45:09.565Z,32.70
2018-01-14T07:47:37.036Z,35.87
2018-01-14T07:50:05.229Z,32.03
2018-01-14T07:52:32.734Z,36.77
2018-01-14T07:55:00.226Z,36.23
2018-01-14T07:57:27.769Z,32.87
2018-01-14T07:59:55.262Z,32.80
2018-01-14T08:02:22.764Z,35.27
2018-01-14T08:04:50.279Z,31.73
2018-01-14T08:07:17.793Z,33.50
2018-01-14T08:09:45.380Z,32.93
2018-01-14T08:12:12.878Z,36.63
2018-01-14T08:14:45.451Z,35.93
2018-01-14T08:17:12.923Z,33.70
2018-01-14T08:19:40.475Z,36.77
2018-01-14T08:22:07.974Z,34.10
2018-01-14T08:24:35.720Z,32.40
2018-01-14T08:27:04.053Z,33.73
2018-01-14T08:29:31.678Z,35.80
2018-01-14T08:31:59.234Z,34.40
2018-01-14T08:34:26.784Z,35.53
2018-01-14T08:36:54.875Z,35.07
2018-01-14T08:39:22.390Z,34.17
2018-01-14T08:41:50.030Z,35.97
2018-01-14T08:44:17.675Z,35.20
2018-01-14T08:46:45.325Z,34.77
2018-01-14T08:49:12.846Z,34.07
2018-01-14T08:51:40.379Z,36.00
2018-01-14T08:54:12.904Z,35.07
2018-01-14T08:56:40.479Z,34.17
2018-01-14T08:59:08.016Z,35.93
2018-01-14T09:01:40.959Z,37.17
2018-01-14T09:04:08.433Z,34.87
2018-01-14T09:06:36.070Z,35.20
2018-01-14T09:09:04.626Z,35.17
2018-01-14T09:11:32.302Z,37.37
2018-01-14T09:13:59.891Z,35.40
2018-01-14T09:16:27.525Z,41.07
2018-01-14T09:18:55.026Z,36.43
2018-01-14T09:21:22.613Z,34.50
2018-01-14T09:23:51.375Z,36.27
2018-01-14T09:26:20.014Z,35.53
2018-01-14T09:28:47.926Z,36.60
2018-01-14T09:31:15.471Z,35.77
2018-01-14T09:33:43.110Z,37.40
2018-01-14T09:36:10.705Z,36.50
2018-01-14T09:38:38.234Z,34.67
2018-01-14T09:41:05.845Z,38.90
2018-01-14T09:43:33.555Z,33.40
2018-01-14T09:46:01.109Z,35.37
2018-01-14T09:48:28.698Z,36.57
2018-01-14T09:50:56.303Z,34.43
2018-01-14T09:53:23.795Z,36.20
2018-01-14T09:55:51.334Z,37.27
2018-01-14T09:58:18.858Z,33.27
2018-01-14T10:00:46.405Z,33.90
2018-01-14T10:03:19.909Z,34.83
2018-01-14T10:05:49.234Z,37.03
2018-01-14T10:08:16.813Z,36.33
2018-01-14T10:10:44.387Z,33.93
2018-01-14T10:13:11.934Z,34.40
2018-01-14T10:15:39.459Z,38.00
2018-01-14T10:18:06.921Z,37.37
2018-01-14T10:20:34.474Z,36.67
2018-01-14T10:23:02.019Z,38.30
2018-01-14T10:25:29.589Z,32.50
2018-01-14T10:27:57.149Z,35.47
2018-01-14T10:30:24.751Z,32.23
2018-01-14T10:32:52.252Z,35.07
2018-01-14T10:35:20.352Z,32.90
2018-01-14T10:37:47.840Z,34.90
2018-01-14T10:40:15.387Z,36.73
2018-01-14T10:42:43.147Z,32.47
2018-01-14T10:45:10.688Z,32.30
2018-01-14T10:47:38.248Z,32.60
2018-01-14T10:50:05.776Z,34.97
2018-01-14T10:52:33.259Z,32.47
2018-01-14T10:55:00.875Z,34.93
2018-01-14T10:57:28.506Z,35.73
2018-01-14T10:59:56.022Z,34.70
2018-01-14T11:02:23.594Z,34.90
2018-01-14T11:04:51.495Z,38.00
2018-01-14T11:07:19.068Z,35.30
2018-01-14T11:09:46.673Z,34.83
2018-01-14T11:12:14.255Z,36.57
2018-01-14T11:14:41.806Z,31.77
2018-01-14T11:17:09.400Z,32.30
2018-01-14T11:19:36.949Z,32.13
2018-01-14T11:22:04.440Z,36.20
2018-01-14T11:24:32.013Z,35.70
2018-01-14T11:26:59.483Z,28.80
2018-01-14T11:32:27.802Z,32.90
2018-01-14T11:34:55.404Z,28.77
2018-01-14T11:37:22.893Z,32.13
2018-01-14T11:39:50.448Z,31.70
2018-01-14T11:42:17.985Z,29.23
2018-01-14T11:44:45.513Z,30.73
2018-01-14T11:47:13.185Z,29.43
2018-01-14T11:49:41.144Z,25.83
2018-01-14T11:52:08.765Z,27.93
2018-01-14T11:54:36.363Z,27.10
2018-01-14T11:57:03.889Z,28.63
2018-01-14T11:59:31.398Z,29.47
2018-01-14T12:01:59.222Z,27.20
2018-01-14T12:04:31.794Z,28.73
2018-01-14T12:06:59.435Z,27.57
2018-01-14T12:09:26.953Z,27.40
2018-01-14T12:11:54.470Z,27.03
2018-01-14T12:14:22.021Z,24.93
2018-01-14T12:16:49.552Z,26.73
2018-01-14T12:19:17.657Z,29.83
2018-01-14T12:21:45.327Z,27.87
2018-01-14T12:24:12.873Z,25.70
2018-01-14T12:26:40.381Z,29.10
2018-01-14T12:29:07.928Z,27.80
2018-01-14T12:31:36.515Z,27.23
2018-01-14T12:34:35.632Z,26.13
2018-01-14T12:37:03.134Z,28.93
2018-01-14T12:39:30.799Z,27.23
2018-01-14T12:41:58.286Z,25.70
2018-01-14T12:44:25.815Z,28.97
2018-01-14T12:46:53.389Z,27.77
2018-01-14T12:49:20.923Z,28.57
2018-01-14T12:51:48.461Z,28.53
2018-01-14T12:54:25.742Z,27.77
2018-01-14T12:56:53.330Z,29.23
2018-01-14T12:59:20.961Z,27.17
2018-01-14T13:01:49.160Z,29.43
2018-01-14T13:04:19.455Z,26.93
2018-01-14T13:06:47.168Z,25.77
2018-01-14T13:09:14.780Z,27.23
2018-01-14T13:11:42.458Z,25.07
2018-01-14T13:14:10.025Z,28.17
2018-01-14T13:16:37.662Z,28.47
2018-01-14T13:19:06.379Z,25.53
2018-01-14T13:21:33.858Z,27.83
2018-01-14T13:24:01.401Z,24.77
2018-01-14T13:26:29.084Z,29.37
2018-01-14T13:28:56.681Z,28.03
2018-01-14T13:31:24.416Z,28.27
2018-01-14T13:33:51.943Z,26.43
2018-01-14T13:36:19.681Z,30.17
2018-01-14T13:38:47.212Z,27.83
2018-01-14T13:41:14.755Z,25.83
2018-01-14T13:43:42.274Z,28.47
2018-01-14T13:46:09.906Z,27.53
2018-01-14T13:48:37.497Z,26.90
2018-01-14T13:51:05.133Z,28.70
2018-01-14T13:53:32.725Z,28.13
2018-01-14T13:56:00.306Z,28.97
2018-01-14T13:58:27.782Z,24.70
2018-01-14T14:00:55.308Z,26.03
2018-01-14T14:03:23.199Z,28.53
2018-01-14T14:05:50.707Z,24.80
2018-01-14T14:08:18.270Z,29.33
2018-01-14T14:10:45.794Z,26.53
2018-01-14T14:13:13.341Z,29.43
2018-01-14T14:15:40.844Z,29.17
2018-01-14T14:18:08.347Z,26.43
2018-01-14T14:20:35.865Z,88.30
2018-01-14T14:23:03.356Z,28.20
2018-01-14T14:25:31.110Z,25.50
2018-01-14T14:27:58.647Z,29.53
2018-01-14T14:30:26.146Z,27.63
2018-01-14T14:32:53.639Z,27.07
2018-01-14T14:35:21.173Z,26.50
2018-01-14T14:37:50.416Z,28.80
2018-01-14T14:40:17.874Z,26.57
2018-01-14T14:42:45.385Z,27.63
2018-01-14T14:45:12.898Z,27.07
2018-01-14T14:47:40.499Z,27.00
2018-01-14T14:50:07.998Z,24.60
2018-01-14T14:52:35.865Z,30.13
2018-01-14T14:55:03.395Z,27.73
2018-01-14T14:57:30.877Z,29.07
2018-01-14T14:59:58.495Z,26.20
2018-01-14T15:02:26.093Z,28.60
2018-01-14T15:04:53.903Z,32.23
2018-01-14T15:07:21.539Z,26.60
2018-01-14T15:09:49.071Z,26.63
2018-01-14T15:12:16.729Z,29.27
2018-01-14T15:14:44.284Z,27.37
2018-01-14T15:17:11.776Z,27.37
2018-01-14T15:19:39.277Z,28.20
2018-01-14T15:22:06.967Z,29.10
2018-01-14T15:24:34.464Z,30.90
2018-01-14T15:27:02.116Z,28.53
2018-01-14T15:29:29.651Z,28.40
2018-01-14T15:31:57.137Z,34.30
2018-01-14T15:34:24.720Z,29.10
2018-01-14T15:36:52.225Z,27.50
2018-01-14T15:39:19.862Z,28.60
2018-01-14T15:41:47.368Z,27.70
2018-01-14T15:44:14.890Z,27.50
2018-01-14T15:46:42.427Z,26.30
2018-01-14T15:49:09.998Z,28.80
2018-01-14T15:51:37.471Z,26.37
2018-01-14T15:54:04.962Z,30.10
2018-01-14T15:56:32.486Z,27.17
2018-01-14T15:59:00.047Z,30.13
2018-01-14T16:01:27.747Z,31.67
2018-01-14T16:03:55.394Z,27.10
2018-01-14T16:06:22.918Z,27.90
2018-01-14T16:08:50.520Z,29.13
2018-01-14T16:11:18.010Z,28.10
2018-01-14T16:13:48.840Z,27.63
2018-01-14T16:16:16.552Z,30.30
2018-01-14T16:18:44.216Z,30.63
2018-01-14T16:21:11.710Z,28.77
2018-01-14T16:23:39.368Z,29.10
2018-01-14T16:26:06.856Z,26.97
2018-01-14T16:28:34.390Z,27.80
2018-01-14T16:31:01.947Z,31.33
2018-01-14T16:33:29.488Z,29.50
2018-01-14T16:35:57.011Z,28.53
2018-01-14T16:38:24.584Z,27.10
2018-01-14T16:40:52.099Z,28.37
2018-01-14T16:43:19.698Z,29.73
2018-01-14T16:45:47.217Z,27.27
2018-01-14T16:48:14.780Z,30.80
2018-01-14T16:50:42.269Z,31.03
2018-01-14T16:53:09.773Z,32.60
2018-01-14T16:55:37.294Z,29.20
2018-01-14T16:58:04.880Z,29.27
2018-01-14T17:00:32.373Z,27.97
2018-01-14T17:02:59.865Z,29.83
2018-01-14T17:05:27.451Z,31.40
2018-01-14T17:07:55.050Z,34.63
2018-01-14T17:10:22.624Z,26.67
2018-01-14T17:12:50.198Z,26.63
2018-01-14T17:15:17.729Z,32.17
2018-01-14T17:17:45.261Z,32.13
2018-01-14T17:20:12.753Z,27.57
2018-01-14T17:22:40.312Z,31.63
2018-01-14T17:25:07.970Z,27.60
2018-01-14T17:27:35.558Z,30.83
2018-01-14T17:30:03.096Z,30.30
2018-01-14T17:32:30.662Z,30.20
2018-01-14T17:34:58.112Z,28.93
2018-01-14T17:37:25.729Z,28.43
2018-01-14T17:39:53.302Z,29.97
2018-01-14T17:42:20.871Z,29.73
2018-01-14T17:44:48.776Z,28.90
2018-01-14T17:47:16.311Z,29.63
2018-01-14T17:49:44.028Z,30.27
2018-01-14T17:52:11.555Z,28.27
2018-01-14T17:54:39.138Z,29.77
2018-01-14T17:57:06.717Z,31.03
2018-01-14T17:59:34.306Z,30.57
2018-01-14T18:02:01.888Z,30.37
2018-01-14T18:04:29.475Z,29.93
2018-01-14T18:06:57.362Z,32.53
2018-01-14T18:09:24.938Z,35.00
2018-01-14T18:11:52.494Z,28.40
2018-01-14T18:14:20.161Z,28.80
2018-01-14T18:16:59.472Z,30.07
2018-01-14T18:19:27.055Z,32.07
2018-01-14T18:21:54.546Z,30.60
2018-01-14T18:24:22.042Z,30.40
2018-01-14T18:26:49.685Z,32.07
2018-01-14T18:29:17.196Z,32.90
2018-01-14T18:31:44.690Z,30.00
2018-01-14T18:34:12.197Z,31.53
2018-01-14T18:36:44.847Z,33.50
2018-01-14T18:39:12.415Z,28.67
2018-01-14T18:41:40.247Z,29.00
2018-01-14T18:44:07.776Z,34.10
2018-01-14T18:46:35.375Z,30.17
2018-01-14T18:49:02.988Z,29.87
2018-01-14T18:51:30.553Z,28.73
2018-01-14T18:53:58.050Z,29.87
2018-01-14T18:56:25.702Z,32.17
2018-01-14T18:58:53.260Z,29.13
2018-01-14T19:01:21.638Z,29.63
2018-01-14T19:03:49.261Z,30.77
2018-01-14T19:06:16.792Z,33.13
2018-01-14T19:08:44.353Z,32.13
2018-01-14T19:11:11.915Z,30.13
2018-01-14T19:13:39.712Z,32.03
2018-01-14T19:16:17.098Z,27.73
2018-01-14T19:18:44.691Z,28.60
2018-01-14T19:21:12.314Z,30.47
2018-01-14T19:23:39.913Z,30.43
2018-01-14T19:26:07.594Z,32.20
2018-01-14T19:28:35.088Z,31.43
2018-01-14T19:31:02.626Z,34.30
2018-01-14T19:33:30.180Z,30.20
2018-01-14T19:35:57.715Z,30.53
2018-01-14T19:38:25.234Z,30.90
2018-01-14T19:40:53.005Z,31.93
2018-01-14T19:43:20.612Z,30.67
2018-01-14T19:45:48.163Z,32.33
2018-01-14T19:48:15.781Z,31.97
2018-01-14T19:50:43.467Z,31.13
2018-01-14T19:53:11.053Z,32.93
2018-01-14T19:55:38.717Z,33.53
2018-01-14T19:58:06.208Z,33.13
2018-01-14T20:00:34.848Z,31.90
2018-01-14T20:03:02.435Z,31.67
2018-01-14T20:05:29.980Z,30.90
2018-01-14T20:07:57.587Z,32.10
2018-01-14T20:10:25.285Z,32.20
2018-01-14T20:12:52.810Z,31.80
2018-01-14T20:15:20.329Z,33.80
2018-01-14T20:17:48.808Z,31.40
2018-01-14T20:20:16.727Z,34.27
2018-01-14T20:22:44.271Z,34.30
2018-01-14T20:25:11.933Z,34.13
2018-01-14T20:27:39.488Z,32.43
2018-01-14T20:30:07.034Z,28.27
2018-01-14T20:32:35.003Z,28.33
2018-01-14T20:35:02.510Z,29.00
2018-01-14T20:37:30.040Z,31.93
2018-01-14T20:39:57.735Z,31.30
2018-01-14T20:42:26.150Z,32.30
2018-01-14T20:44:55.506Z,30.23
2018-01-14T20:47:23.105Z,31.27
2018-01-14T20:49:50.976Z,32.10
2018-01-14T20:52:18.581Z,30.60
2018-01-14T20:54:46.274Z,31.13
2018-01-14T20:57:14.035Z,33.47
2018-01-14T20:59:41.558Z,29.60
2018-01-14T21:02:09.101Z,31.80
2018-01-14T21:04:36.728Z,30.50
2018-01-14T21:07:04.235Z,30.97
2018-01-14T21:09:31.776Z,32.23
2018-01-14T21:12:00.164Z,30.97
2018-01-14T21:14:27.782Z,32.03
2018-01-14T21:16:55.304Z,31.37
2018-01-14T21:19:22.864Z,32.17
2018-01-14T21:21:50.366Z,31.30
2018-01-14T21:24:17.916Z,33.33
2018-01-14T21:26:45.481Z,32.17
2018-01-14T21:29:12.995Z,32.90
2018-01-14T21:31:40.654Z,33.33
2018-01-14T21:34:08.276Z,34.33
2018-01-14T21:36:36.098Z,32.20
2018-01-14T21:39:03.801Z,30.23
2018-01-14T21:41:31.795Z,32.77
2018-01-14T21:43:59.308Z,29.43
2018-01-14T21:46:26.826Z,32.87
2018-01-14T21:48:54.322Z,30.47
2018-01-14T21:51:21.964Z,33.07
2018-01-14T21:53:49.728Z,31.00
2018-01-14T21:56:17.200Z,32.27
2018-01-14T21:58:44.729Z,28.60
2018-01-14T22:01:12.384Z,32.80
2018-01-14T22:03:40.969Z,30.60
2018-01-14T22:06:08.579Z,28.33
2018-01-14T22:08:36.182Z,31.30
2018-01-14T22:11:03.802Z,31.37
2018-01-14T22:13:31.308Z,29.63
2018-01-14T22:15:58.868Z,28.97
2018-01-14T22:18:26.364Z,30.23
2018-01-14T22:20:54.502Z,27.90
2018-01-14T22:23:22.018Z,27.87
2018-01-14T22:25:50.440Z,29.13
2018-01-14T22:28:18.005Z,28.63
2018-01-14T22:30:45.565Z,30.07
2018-01-14T22:33:13.068Z,29.90
2018-01-14T22:35:40.889Z,27.13
2018-01-14T22:38:08.459Z,25.77
2018-01-14T22:40:35.971Z,29.23
2018-01-14T22:43:03.493Z,25.30
2018-01-14T22:45:31.004Z,23.50
2018-01-14T22:47:58.525Z,26.13
2018-01-14T22:50:26.082Z,28.77
2018-01-14T22:52:53.712Z,29.50
2018-01-14T22:55:21.235Z,27.87
2018-01-14T22:57:48.725Z,25.27
2018-01-14T23:00:17.134Z,27.50
2018-01-14T23:02:44.795Z,24.00
2018-01-14T23:05:17.283Z,25.87
2018-01-14T23:07:44.763Z,27.40
2018-01-14T23:10:12.309Z,24.03
2018-01-14T23:12:39.941Z,24.00
2018-01-14T23:15:08.361Z,27.23
2018-01-14T23:17:35.894Z,24.10
2018-01-14T23:20:03.760Z,21.53
2018-01-14T23:22:31.399Z,23.10
2018-01-14T23:24:58.984Z,20.43
2018-01-14T23:27:26.545Z,19.67
2018-01-14T23:29:54.079Z,21.50
2018-01-14T23:32:21.598Z,21.00
2018-01-14T23:34:49.088Z,19.33
2018-01-14T23:37:16.923Z,19.60
2018-01-14T23:39:44.450Z,16.50
2018-01-14T23:42:12.123Z,16.10
2018-01-14T23:44:39.718Z,18.47
2018-01-14T23:47:07.333Z,12.90
2018-01-14T23:49:34.998Z,12.87
2018-01-14T23:52:02.629Z,13.63
2018-01-14T23:54:30.194Z,11.70
2018-01-14T23:56:57.842Z,12.87
2018-01-14T23:59:25.372Z,13.37
